Time;durP1;ratioP1;P1;durP2;ratioP2;P2;SDS_P1;SDS_P2;PMS_P1;PMS_P2;Temp;Humidity;BMP_temperature;BMP_pressure;BME280_temperature;BME280_humidity;BME280_pressure;Samples;Min_cycle;Max_cycle;Signal;HPM_P1;HPM_P2
2022/04/21 00:00:08;;;;;;;12.80;8.37;;;;;;;6.13;100.00;100487.78;4939718;29;20249;-71
2022/04/21 00:02:36;;;;;;;16.13;8.47;;;;;;;6.13;100.00;100485.19;4947881;28;20230;-71
2022/04/21 00:05:03;;;;;;;15.73;8.73;;;;;;;6.13;100.00;100480.88;4953993;28;20198;-71
2022/04/21 00:07:30;;;;;;;13.23;7.77;;;;;;;6.13;100.00;100482.59;4948489;28;20222;-70
2022/04/21 00:09:56;;;;;;;13.17;8.03;;;;;;;6.13;100.00;100475.69;4948436;28;20202;-71
2022/04/21 00:12:23;;;;;;;11.93;8.37;;;;;;;6.12;100.00;100481.75;4949269;28;20214;-71
2022/04/21 00:14:49;;;;;;;12.27;7.57;;;;;;;6.13;100.00;100480.88;4949300;28;20205;-71
2022/04/21 00:17:16;;;;;;;12.87;7.90;;;;;;;6.14;100.00;100480.00;4948765;28;20230;-71
2022/04/21 00:19:44;;;;;;;14.50;7.47;;;;;;;6.15;100.00;100486.88;4948317;28;20202;-71
2022/04/21 00:24:54;;;;;;;9.87;7.87;;;;;;;6.16;100.00;100482.56;4948014;29;20670;-71
2022/04/21 00:27:20;;;;;;;16.63;8.60;;;;;;;6.14;100.00;100477.41;4946823;28;20724;-71
2022/04/21 00:29:47;;;;;;;11.67;7.90;;;;;;;6.13;100.00;100478.28;4949625;28;20230;-71
2022/04/21 00:32:13;;;;;;;10.33;7.73;;;;;;;6.13;100.00;100478.28;4948397;28;20648;-71
2022/04/21 00:34:40;;;;;;;11.17;8.03;;;;;;;6.15;100.00;100475.66;4948794;28;20207;-71
2022/04/21 00:37:08;;;;;;;15.90;8.43;;;;;;;6.15;100.00;100475.66;4949262;28;20238;-71
2022/04/21 00:39:35;;;;;;;11.70;9.07;;;;;;;6.12;100.00;100476.56;4942160;28;20257;-71
2022/04/21 00:42:03;;;;;;;13.97;8.10;;;;;;;6.13;100.00;100472.25;4948335;28;20225;-70
2022/04/21 00:44:31;;;;;;;13.13;7.53;;;;;;;6.14;100.00;100467.06;4944501;28;20203;-71
2022/04/21 00:47:02;;;;;;;9.03;7.30;;;;;;;6.12;100.00;100468.81;4948287;28;20253;-71
2022/04/21 00:49:31;;;;;;;12.73;7.90;;;;;;;6.11;100.00;100464.50;4949612;28;20210;-71
2022/04/21 00:51:59;;;;;;;13.20;8.20;;;;;;;6.12;100.00;100470.50;4945675;29;20203;-71
2022/04/21 00:54:31;;;;;;;12.83;8.07;;;;;;;6.13;100.00;100461.88;4951487;28;20207;-71
2022/04/21 00:56:58;;;;;;;12.63;7.87;;;;;;;6.11;100.00;100459.31;4947326;28;20226;-71
2022/04/21 00:59:26;;;;;;;13.30;8.13;;;;;;;6.10;100.00;100459.31;4950278;28;20203;-71
2022/04/21 01:04:39;;;;;;;13.57;8.00;;;;;;;6.10;100.00;100455.00;4966207;28;20203;-71
2022/04/21 01:07:08;;;;;;;14.47;8.33;;;;;;;6.09;100.00;100455.03;4951501;28;20274;-71
2022/04/21 01:09:36;;;;;;;14.23;8.20;;;;;;;6.08;100.00;100454.16;4950900;28;20206;-71
2022/04/21 01:12:04;;;;;;;16.13;8.63;;;;;;;6.06;100.00;100454.16;4951470;28;20618;-71
2022/04/21 01:14:31;;;;;;;10.20;7.37;;;;;;;6.07;100.00;100455.06;4945545;28;20671;-70
2022/04/21 01:17:00;;;;;;;14.27;7.37;;;;;;;6.05;100.00;100451.59;4951502;28;20294;-71
2022/04/21 01:19:26;;;;;;;12.93;8.00;;;;;;;6.03;100.00;100459.41;4949826;28;20308;-71
2022/04/21 01:21:54;;;;;;;11.97;7.03;;;;;;;6.04;100.00;100452.50;4944467;28;20718;-71
2022/04/21 01:24:20;;;;;;;12.53;8.80;;;;;;;6.03;100.00;100462.00;4950555;28;20215;-71
2022/04/21 01:26:47;;;;;;;12.13;8.33;;;;;;;6.03;100.00;100454.22;4950647;28;20222;-71
2022/04/21 01:29:13;;;;;;;11.80;8.03;;;;;;;6.02;100.00;100449.06;4951015;29;20202;-71
2022/04/21 01:31:39;;;;;;;9.87;8.10;;;;;;;6.02;100.00;100456.81;4950715;28;20212;-71
2022/04/21 01:34:06;;;;;;;13.07;7.90;;;;;;;6.01;100.00;100452.50;4950203;28;20688;-71
2022/04/21 01:36:32;;;;;;;15.47;8.03;;;;;;;6.01;100.00;100450.78;4944472;28;20230;-71
2022/04/21 01:41:44;;;;;;;12.27;7.97;;;;;;;6.00;100.00;100440.47;4948241;29;20218;-71
2022/04/21 01:44:10;;;;;;;11.77;8.03;;;;;;;6.00;100.00;100440.47;4947497;28;20204;-71
2022/04/21 01:46:36;;;;;;;12.73;7.80;;;;;;;6.00;100.00;100445.63;4949876;28;20218;-71
2022/04/21 01:49:03;;;;;;;13.83;8.67;;;;;;;6.02;100.00;100438.72;4950706;28;20208;-71
2022/04/21 01:51:30;;;;;;;13.13;8.00;;;;;;;5.98;100.00;100431.84;4950037;28;20286;-71
2022/04/21 01:53:56;;;;;;;11.50;7.83;;;;;;;5.99;100.00;100431.81;4944971;29;20665;-71
2022/04/21 01:56:24;;;;;;;15.63;7.70;;;;;;;5.98;100.00;100432.72;4946346;28;20318;-71
2022/04/21 01:58:50;;;;;;;13.53;8.23;;;;;;;5.97;100.00;100424.97;4947554;28;20210;-70
2022/04/21 02:01:17;;;;;;;14.07;8.83;;;;;;;5.98;100.00;100427.53;4949389;28;21025;-71
2022/04/21 02:03:43;;;;;;;14.23;8.40;;;;;;;5.98;100.00;100421.47;4950257;28;20226;-71
2022/04/21 02:06:10;;;;;;;11.00;7.77;;;;;;;5.96;100.00;100407.69;4950323;28;21257;-71
2022/04/21 02:08:36;;;;;;;14.60;9.23;;;;;;;5.95;100.00;100418.91;4954036;28;20216;-71
2022/04/21 02:11:03;;;;;;;14.27;8.00;;;;;;;5.94;100.00;100418.03;4947029;28;20210;-70
2022/04/21 02:13:31;;;;;;;11.20;7.53;;;;;;;5.93;100.00;100421.50;4948696;28;20242;-71
2022/04/21 02:15:57;;;;;;;13.83;8.23;;;;;;;5.93;100.00;100425.81;4947508;29;20226;-71
2022/04/21 02:18:24;;;;;;;12.37;8.30;;;;;;;5.93;100.00;100423.22;4950315;28;20206;-71
2022/04/21 02:20:50;;;;;;;11.83;8.07;;;;;;;5.94;100.00;100419.78;4947631;28;20206;-71
2022/04/21 02:23:16;;;;;;;13.63;8.03;;;;;;;5.92;100.00;100421.53;4949061;29;20237;-71
2022/04/21 02:25:43;;;;;;;12.27;7.80;;;;;;;5.91;100.00;100423.25;4947929;28;20230;-71
2022/04/21 02:28:09;;;;;;;13.23;8.27;;;;;;;5.92;100.00;100421.53;4950371;28;20211;-71
2022/04/21 02:30:37;;;;;;;14.10;8.50;;;;;;;5.89;100.00;100417.22;4949833;28;20261;-71
2022/04/21 02:33:03;;;;;;;13.47;8.33;;;;;;;5.89;100.00;100419.81;4949532;28;20670;-71
2022/04/21 02:35:30;;;;;;;14.63;8.20;;;;;;;5.90;100.00;100412.94;4942980;28;20230;-71
2022/04/21 02:37:56;;;;;;;14.33;7.87;;;;;;;5.87;100.00;100413.78;4945194;29;20402;-70
2022/04/21 02:40:23;;;;;;;13.37;8.57;;;;;;;5.85;100.00;100405.19;4942633;28;20218;-71
2022/04/21 02:42:49;;;;;;;11.23;8.00;;;;;;;5.84;100.00;100406.06;4949874;28;20762;-71
2022/04/21 02:45:16;;;;;;;14.03;7.87;;;;;;;5.83;100.00;100414.72;4949403;28;20206;-70
2022/04/21 02:47:45;;;;;;;10.90;7.97;;;;;;;5.84;100.00;100411.22;4949234;28;20230;-71
2022/04/21 02:50:14;;;;;;;12.50;8.60;;;;;;;5.84;100.00;100406.94;4949258;28;20211;-71
2022/04/21 02:52:42;;;;;;;14.00;7.83;;;;;;;5.84;100.00;100396.59;4947815;28;20198;-71
2022/04/21 02:57:54;;;;;;;12.83;8.67;;;;;;;5.83;100.00;100399.19;4944141;28;20254;-71
2022/04/21 03:00:20;;;;;;;11.20;8.13;;;;;;;5.84;100.00;100401.75;4947323;29;20294;-71
2022/04/21 03:02:48;;;;;;;13.47;7.80;;;;;;;5.83;100.00;100401.78;4950902;28;20280;-71
2022/04/21 03:05:15;;;;;;;14.10;7.80;;;;;;;5.82;100.00;100407.81;4953355;28;20680;-71
2022/04/21 03:07:41;;;;;;;15.20;8.03;;;;;;;5.76;100.00;100411.31;4948918;28;20214;-71
2022/04/21 03:10:08;;;;;;;13.70;8.10;;;;;;;5.76;100.00;100413.91;4942761;28;20218;-71
2022/04/21 03:12:35;;;;;;;12.87;8.77;;;;;;;5.76;100.00;100415.66;4948427;28;20740;-71
2022/04/21 03:15:02;;;;;;;15.10;8.17;;;;;;;5.72;100.00;100425.16;4949517;28;20194;-71
2022/04/21 03:17:29;;;;;;;15.47;8.43;;;;;;;5.69;100.00;100423.44;4948915;28;20230;-71
2022/04/21 03:19:57;;;;;;;11.80;8.07;;;;;;;5.72;100.00;100424.28;4949586;28;20285;-72
2022/04/21 03:25:10;;;;;;;14.57;7.53;;;;;;;5.70;100.00;100416.56;4945987;29;20677;-71
2022/04/21 03:27:36;;;;;;;14.67;8.53;;;;;;;5.68;100.00;100416.56;4947496;28;20226;-71
2022/04/21 03:30:05;;;;;;;14.10;8.63;;;;;;;5.65;100.00;100416.59;4942360;28;20207;-71
2022/04/21 03:32:31;;;;;;;11.40;7.83;;;;;;;5.67;100.00;100422.59;4946725;29;20221;-71
2022/04/21 03:35:00;;;;;;;13.33;8.40;;;;;;;5.64;100.00;100426.97;4948816;28;20202;-71
2022/04/21 03:37:27;;;;;;;12.87;7.90;;;;;;;5.61;100.00;100425.28;4949300;28;20238;-71
2022/04/21 03:39:53;;;;;;;15.37;8.13;;;;;;;5.59;100.00;100420.97;4949004;28;20202;-71
2022/04/21 03:42:23;;;;;;;13.93;8.60;;;;;;;5.61;100.00;100425.28;4948118;28;20748;-71
2022/04/21 03:44:49;;;;;;;12.97;8.67;;;;;;;5.59;100.00;100418.38;4946243;28;20217;-71
2022/04/21 03:47:16;;;;;;;13.73;8.57;;;;;;;5.58;100.00;100417.53;4949146;28;20230;-71
2022/04/21 03:49:42;;;;;;;14.27;8.87;;;;;;;5.56;100.00;100418.41;4948231;28;20646;-71
2022/04/21 03:52:10;;;;;;;13.00;8.90;;;;;;;5.55;100.00;100422.72;4944988;29;20210;-70
2022/04/21 03:54:37;;;;;;;15.80;8.63;;;;;;;5.58;100.00;100419.28;4948643;28;20253;-71
2022/04/21 03:57:05;;;;;;;12.97;8.33;;;;;;;5.55;100.00;100420.13;4947968;28;20218;-71
2022/04/21 03:59:32;;;;;;;12.57;8.57;;;;;;;5.52;100.00;100417.56;4948039;28;20696;-71
2022/04/21 04:02:02;;;;;;;13.20;8.57;;;;;;;5.53;100.00;100421.88;4948337;28;20203;-71
2022/04/21 04:04:28;;;;;;;15.70;8.10;;;;;;;5.53;100.00;100424.47;4943522;28;20207;-71
2022/04/21 04:12:24;;;;;;;13.80;8.43;;;;;;;5.53;100.00;100426.22;4948065;28;20195;-71
2022/04/21 04:14:50;;;;;;;12.93;8.73;;;;;;;5.54;100.00;100425.31;4948719;29;21134;-71
2022/04/21 04:17:17;;;;;;;11.33;8.57;;;;;;;5.54;100.00;100428.78;4947887;28;20306;-71
2022/04/21 04:19:43;;;;;;;14.60;9.00;;;;;;;5.54;100.00;100423.59;4948419;28;20210;-71
2022/04/21 04:22:09;;;;;;;15.30;9.10;;;;;;;5.50;100.00;100421.91;4948427;28;20206;-71
2022/04/21 04:24:36;;;;;;;12.47;8.60;;;;;;;5.50;100.00;100429.66;4949419;28;20207;-71
2022/04/21 04:27:04;;;;;;;14.07;8.70;;;;;;;5.52;100.00;100430.50;4949769;28;20253;-71
2022/04/21 04:29:30;;;;;;;14.27;8.07;;;;;;;5.53;100.00;100431.38;4946960;29;20543;-71
2022/04/21 04:31:57;;;;;;;15.63;8.60;;;;;;;5.51;100.00;100441.72;4951613;28;20593;-71
2022/04/21 04:34:24;;;;;;;12.73;8.20;;;;;;;5.50;100.00;100447.75;4949517;29;20598;-71
2022/04/21 04:36:50;;;;;;;16.37;9.27;;;;;;;5.50;100.00;100443.47;4951357;28;20706;-71
2022/04/21 04:39:17;;;;;;;15.43;8.60;;;;;;;5.50;100.00;100448.63;4951224;28;20739;-71
2022/04/21 04:44:29;;;;;;;13.80;9.00;;;;;;;5.54;100.00;100449.47;4952378;28;20828;-71
2022/04/21 04:46:54;;;;;;;15.50;8.70;;;;;;;5.52;100.00;100443.44;4938444;28;20566;-71
2022/04/21 04:49:21;;;;;;;13.80;8.40;;;;;;;5.53;100.00;100445.16;4949023;29;20243;-71
2022/04/21 04:51:47;;;;;;;15.10;8.77;;;;;;;5.54;100.00;100443.41;4951231;28;20205;-71
2022/04/21 04:54:16;;;;;;;14.80;8.47;;;;;;;5.53;100.00;100439.13;4955063;28;20211;-71
2022/04/21 04:56:43;;;;;;;16.87;8.63;;;;;;;5.54;100.00;100446.00;4950191;28;20224;-71
2022/04/21 04:59:10;;;;;;;13.00;8.67;;;;;;;5.52;100.00;100448.59;4949926;28;20689;-71
2022/04/21 05:01:41;;;;;;;12.40;8.53;;;;;;;5.48;100.00;100445.19;4951249;28;20202;-70
2022/04/21 05:04:09;;;;;;;16.27;9.67;;;;;;;5.49;100.00;100446.06;4947262;28;20233;-71
2022/04/21 05:06:36;;;;;;;13.63;9.60;;;;;;;5.50;100.00;100450.34;4944487;28;20241;-71
2022/04/21 05:09:03;;;;;;;17.13;9.50;;;;;;;5.48;100.00;100446.91;4948594;28;20226;-71
2022/04/21 05:11:30;;;;;;;15.00;9.17;;;;;;;5.48;100.00;100445.19;4950725;28;20582;-71
2022/04/21 05:13:56;;;;;;;15.60;9.43;;;;;;;5.44;100.00;100446.09;4944611;29;20712;-71
2022/04/21 05:16:23;;;;;;;16.70;10.63;;;;;;;5.44;100.00;100440.91;4951022;28;20226;-71
2022/04/21 05:18:52;;;;;;;19.90;9.50;;;;;;;5.47;100.00;100445.19;4950834;28;20207;-71
2022/04/21 05:21:19;;;;;;;14.77;9.37;;;;;;;5.44;100.00;100438.34;4942380;29;20493;-71
2022/04/21 05:23:48;;;;;;;15.47;9.67;;;;;;;5.46;100.00;100440.91;4950894;28;20753;-70
2022/04/21 05:26:15;;;;;;;13.97;9.60;;;;;;;5.46;100.00;100433.16;4951332;28;20230;-71
2022/04/21 05:28:43;;;;;;;18.30;10.33;;;;;;;5.45;100.00;100432.31;4946702;28;20666;-71
2022/04/21 05:31:08;;;;;;;16.40;10.27;;;;;;;5.46;100.00;100428.81;4951535;28;20217;-71
2022/04/21 05:33:37;;;;;;;17.83;9.97;;;;;;;5.46;100.00;100434.00;4950396;28;20577;-71
2022/04/21 05:36:06;;;;;;;15.30;10.37;;;;;;;5.47;100.00;100429.69;4949452;28;20229;-71
2022/04/21 05:38:33;;;;;;;16.43;10.67;;;;;;;5.48;100.00;100428.81;4949496;29;20206;-71
2022/04/21 05:41:01;;;;;;;16.27;10.80;;;;;;;5.48;100.00;100424.50;4948754;28;20635;-71
2022/04/21 05:43:31;;;;;;;16.23;10.40;;;;;;;5.49;100.00;100425.38;4950719;28;20286;-71
2022/04/21 05:45:58;;;;;;;18.60;10.77;;;;;;;5.49;100.00;100420.19;4946064;29;20225;-71
2022/04/21 05:48:24;;;;;;;25.93;12.07;;;;;;;5.50;100.00;100419.31;4950697;28;20299;-70
2022/04/21 05:50:53;;;;;;;19.03;11.10;;;;;;;5.54;100.00;100425.31;4951039;28;20698;-70
2022/04/21 05:53:22;;;;;;;17.00;10.93;;;;;;;5.52;100.00;100429.66;4953522;28;20206;-70
2022/04/21 05:55:50;;;;;;;17.70;11.47;;;;;;;5.52;100.00;100424.47;4946452;28;20653;-71
2022/04/21 05:58:16;;;;;;;18.93;10.80;;;;;;;5.55;100.00;100422.72;4950420;28;20211;-70
2022/04/21 06:00:43;;;;;;;21.70;12.23;;;;;;;5.59;100.00;100423.56;4950568;28;20975;-70
2022/04/21 06:03:11;;;;;;;22.13;12.43;;;;;;;5.60;100.00;100422.69;4950774;28;20723;-70
2022/04/21 06:05:37;;;;;;;19.47;11.60;;;;;;;5.57;100.00;100433.06;4945542;28;20721;-71
2022/04/21 06:08:05;;;;;;;21.13;12.60;;;;;;;5.56;100.00;100426.16;4939639;28;20203;-70
2022/04/21 06:10:33;;;;;;;23.80;12.73;;;;;;;5.60;100.00;100430.44;4943853;29;20294;-71
2022/04/21 06:13:01;;;;;;;24.17;11.57;;;;;;;5.61;100.00;100434.72;4949867;28;20731;-70
2022/04/21 06:15:30;;;;;;;30.13;14.07;;;;;;;5.60;100.00;100431.31;4945516;28;20258;-71
2022/04/21 06:17:56;;;;;;;24.13;12.97;;;;;;;5.62;100.00;100433.88;4944986;29;20205;-71
2022/04/21 06:20:23;;;;;;;22.50;12.47;;;;;;;5.62;100.00;100428.72;4950320;28;20206;-71
2022/04/21 06:22:49;;;;;;;34.97;14.07;;;;;;;5.65;100.00;100431.28;4949389;28;20212;-71
2022/04/21 06:25:16;;;;;;;32.60;14.13;;;;;;;5.68;100.00;100426.94;4951121;28;20211;-70
2022/04/21 06:27:43;;;;;;;33.50;14.63;;;;;;;5.73;100.00;100438.94;4944454;28;20646;-70
2022/04/21 06:30:10;;;;;;;29.13;13.63;;;;;;;5.72;100.00;100438.09;4949916;28;20198;-71
2022/04/21 06:32:37;;;;;;;33.50;15.73;;;;;;;5.73;100.00;100432.03;4950069;28;20207;-71
2022/04/21 06:35:04;;;;;;;33.10;15.27;;;;;;;5.76;100.00;100426.84;4950945;28;20194;-70
2022/04/21 06:37:31;;;;;;;30.20;16.00;;;;;;;5.81;100.00;100432.84;4951605;28;20227;-71
2022/04/21 06:39:57;;;;;;;39.10;16.13;;;;;;;5.82;100.00;100433.69;4950353;28;20548;-70
2022/04/21 06:42:24;;;;;;;31.50;16.43;;;;;;;5.84;100.00;100427.63;4952081;28;20210;-71
2022/04/21 06:50:19;;;;;;;34.87;16.03;;;;;;;5.91;100.00;100443.97;4947912;28;20737;-70
2022/04/21 06:52:46;;;;;;;30.90;16.17;;;;;;;5.94;100.00;100437.88;4949270;28;20233;-70
2022/04/21 06:55:12;;;;;;;37.93;16.60;;;;;;;5.94;100.00;100451.69;4949672;28;20217;-71
2022/04/21 06:57:38;;;;;;;40.20;17.20;;;;;;;5.98;100.00;100452.53;4950793;28;20861;-70
2022/04/21 07:00:09;;;;;;;34.03;16.57;;;;;;;5.99;100.00;100452.53;4950024;28;20313;-70
2022/04/21 07:02:37;;;;;;;39.83;17.57;;;;;;;6.04;100.00;100450.75;4949005;28;20562;-71
2022/04/21 07:05:05;;;;;;;36.97;17.10;;;;;;;6.07;100.00;100450.72;4954521;28;20223;-71
2022/04/21 07:07:31;;;;;;;32.03;17.07;;;;;;;6.10;100.00;100456.75;4948843;28;20869;-70
2022/04/21 07:09:58;;;;;;;32.13;16.13;;;;;;;6.12;100.00;100452.41;4948828;28;20939;-71
2022/04/21 07:12:26;;;;;;;34.13;16.73;;;;;;;6.13;100.00;100454.97;4948763;28;20286;-71
2022/04/21 07:14:53;;;;;;;31.63;16.83;;;;;;;6.17;100.00;100459.22;4949203;29;20199;-71
2022/04/21 07:17:20;;;;;;;32.50;17.30;;;;;;;6.18;100.00;100460.97;4942789;28;20241;-70
2022/04/21 07:19:47;;;;;;;34.33;17.37;;;;;;;6.20;100.00;100460.94;4943086;28;20210;-70
2022/04/21 07:22:14;;;;;;;38.07;17.87;;;;;;;6.23;100.00;100466.94;4944139;28;20214;-71
2022/04/21 07:24:40;;;;;;;38.27;18.97;;;;;;;6.27;100.00;100460.00;4949357;28;20218;-71
2022/04/21 07:27:07;;;;;;;36.17;18.33;;;;;;;6.28;100.00;100453.97;4948457;28;20721;-71
2022/04/21 07:29:35;;;;;;;37.63;17.10;;;;;;;6.29;100.00;100455.66;4949432;28;20253;-71
2022/04/21 07:32:01;;;;;;;28.23;16.97;;;;;;;6.36;100.00;100466.81;4949076;28;20253;-71
2022/04/21 07:34:29;;;;;;;31.70;16.37;;;;;;;6.35;100.00;100465.09;4948773;28;20211;-71
2022/04/21 07:36:55;;;;;;;33.23;16.80;;;;;;;6.39;100.00;100475.41;4942856;28;20237;-71
2022/04/21 07:39:21;;;;;;;28.00;16.10;;;;;;;6.39;100.00;100465.03;4942658;28;20203;-71
2022/04/21 07:41:48;;;;;;;31.77;15.47;;;;;;;6.42;100.00;100467.59;4948564;28;20211;-71
2022/04/21 07:44:14;;;;;;;27.50;16.17;;;;;;;6.46;100.00;100471.03;4948939;28;20219;-71
2022/04/21 07:46:40;;;;;;;25.50;16.13;;;;;;;6.49;100.00;100477.88;4946707;29;20218;-71
2022/04/21 07:53:12;;;;;;;30.67;16.27;;;;;;;6.53;100.00;100482.16;4948923;28;20269;-71
2022/04/21 07:54:38;;;;;;;29.73;16.93;;;;;;;6.56;100.00;100480.41;4946800;29;20245;-71
2022/04/21 07:57:04;;;;;;;26.67;15.77;;;;;;;6.50;100.00;100480.47;4944317;28;20226;-71
2022/04/21 07:59:31;;;;;;;24.87;15.83;;;;;;;6.53;100.00;100482.16;4950444;28;20198;-71
2022/04/21 08:01:57;;;;;;;23.83;14.47;;;;;;;6.57;100.00;100486.44;4952770;29;20198;-71
2022/04/21 08:04:24;;;;;;;24.13;14.87;;;;;;;6.61;100.00;100486.38;4952502;28;20597;-70
2022/04/21 08:06:54;;;;;;;25.03;15.63;;;;;;;6.69;100.00;100488.03;4952607;28;20570;-71
2022/04/21 08:09:21;;;;;;;21.53;15.07;;;;;;;6.74;100.00;100496.59;4952667;28;20218;-70
2022/04/21 08:11:47;;;;;;;24.10;15.10;;;;;;;6.79;100.00;100485.28;4957224;28;20206;-70
2022/04/21 08:14:17;;;;;;;24.70;15.13;;;;;;;6.83;100.00;100488.69;4951337;28;20213;-71
2022/04/21 08:16:44;;;;;;;24.73;16.30;;;;;;;6.92;100.00;100485.97;4947969;28;20218;-70
2022/04/21 08:19:10;;;;;;;24.50;15.40;;;;;;;6.95;100.00;100487.69;4957733;28;20617;-71
2022/04/21 08:21:37;;;;;;;24.17;17.03;;;;;;;6.95;100.00;100485.94;4948185;28;20202;-71
2022/04/21 08:34:59;;;;;;;30.50;16.43;;;;;;;7.20;100.00;100506.34;4946049;28;20202;-71
2022/04/21 08:37:25;;;;;;;25.67;17.07;;;;;;;7.26;100.00;100505.41;4952489;28;20246;-71
2022/04/21 08:39:53;;;;;;;26.87;17.30;;;;;;;7.25;100.00;100499.38;4946865;28;20198;-71
2022/04/21 08:42:21;;;;;;;26.00;17.00;;;;;;;7.31;100.00;100498.41;4952011;28;20202;-71
2022/04/21 08:44:50;;;;;;;29.30;16.43;;;;;;;7.38;100.00;100500.03;4952153;28;20236;-71
2022/04/21 08:47:20;;;;;;;31.57;17.97;;;;;;;7.39;100.00;100500.03;4947563;28;20233;-71
2022/04/21 08:49:48;;;;;;;28.67;16.57;;;;;;;7.46;100.00;100502.50;4951424;28;20261;-71
2022/04/21 08:52:16;;;;;;;25.13;16.43;;;;;;;7.45;100.00;100501.66;4951924;28;20206;-71
2022/04/21 08:54:43;;;;;;;28.03;16.80;;;;;;;7.48;100.00;100499.03;4949880;29;20199;-70
2022/04/21 08:57:11;;;;;;;28.10;16.60;;;;;;;7.45;100.00;100504.25;4951694;28;20241;-70
2022/04/21 08:59:37;;;;;;;24.83;15.47;;;;;;;7.50;100.00;100507.63;4950080;28;20658;-71
2022/04/21 09:02:04;;;;;;;24.97;16.43;;;;;;;7.50;100.00;100504.19;4951524;28;20543;-71
2022/04/21 09:04:31;;;;;;;23.50;16.47;;;;;;;7.50;100.00;100499.00;4951131;28;20244;-70
2022/04/21 09:07:09;;;;;;;21.53;15.03;;;;;;;7.51;100.00;100503.28;4951136;28;20245;-71
2022/04/21 09:09:37;;;;;;;24.70;15.70;;;;;;;7.55;100.00;100499.78;4947528;28;20215;-70
2022/04/21 09:12:04;;;;;;;22.00;14.27;;;;;;;7.54;100.00;100506.69;4945308;28;20215;-71
2022/04/21 09:14:31;;;;;;;23.40;15.13;;;;;;;7.61;100.00;100509.22;4949212;29;20199;-71
2022/04/21 09:17:05;;;;;;;21.70;14.43;;;;;;;7.58;100.00;100508.38;4945788;29;20253;-71
2022/04/21 09:19:31;;;;;;;24.40;14.23;;;;;;;7.59;100.00;100512.66;4948892;28;20365;-71
2022/04/21 09:21:59;;;;;;;22.57;15.07;;;;;;;7.63;100.00;100513.47;4951210;28;20217;-71
2022/04/21 09:24:27;;;;;;;28.03;15.27;;;;;;;7.70;100.00;100520.28;4950180;28;20216;-71
2022/04/21 09:26:57;;;;;;;23.07;14.80;;;;;;;7.68;100.00;100516.88;4950761;28;20631;-71
2022/04/21 09:29:25;;;;;;;19.70;14.13;;;;;;;7.71;100.00;100522.00;4950592;28;20837;-72
2022/04/21 09:31:58;;;;;;;19.17;13.70;;;;;;;7.72;100.00;100520.25;4950871;28;20212;-71
2022/04/21 09:34:26;;;;;;;20.07;14.43;;;;;;;7.81;100.00;100522.72;4944378;28;20301;-71
2022/04/21 09:36:55;;;;;;;22.97;13.90;;;;;;;7.80;100.00;100523.59;4948914;28;20221;-70
2022/04/21 09:39:22;;;;;;;21.87;15.07;;;;;;;7.88;100.00;100515.69;4947940;28;20686;-71
2022/04/21 09:41:52;;;;;;;22.33;14.33;;;;;;;7.93;100.00;100525.13;4949948;28;20265;-71
2022/04/21 09:47:05;;;;;;;15.07;10.87;;;;;;;7.94;100.00;100516.44;4950911;28;20585;-71
2022/04/21 09:49:36;;;;;;;14.70;11.13;;;;;;;7.91;100.00;100523.41;4950112;28;20231;-71
2022/04/21 09:52:03;;;;;;;16.30;10.60;;;;;;;7.91;100.00;100520.81;4950759;28;20203;-71
2022/04/21 09:54:30;;;;;;;14.73;11.87;;;;;;;7.99;100.00;100521.56;4950531;28;20222;-71
2022/04/21 09:56:58;;;;;;;15.47;11.10;;;;;;;8.02;100.00;100524.13;4945316;28;20226;-71
2022/04/21 09:59:25;;;;;;;17.13;12.57;;;;;;;8.11;100.00;100521.34;4950320;28;20571;-71
2022/04/21 10:01:52;;;;;;;16.50;11.23;;;;;;;8.19;100.00;100516.00;4950161;29;20203;-71
2022/04/21 10:04:20;;;;;;;14.40;11.17;;;;;;;8.24;100.00;100521.97;4954246;28;20226;-71
2022/04/21 10:06:48;;;;;;;15.63;11.40;;;;;;;8.38;100.00;100520.88;4951082;28;20452;-71
2022/04/21 10:09:16;;;;;;;17.10;11.90;;;;;;;8.45;100.00;100523.34;4942741;29;20211;-71
2022/04/21 10:11:43;;;;;;;16.27;11.77;;;;;;;8.64;100.00;100523.00;4948798;28;20208;-71
2022/04/21 10:14:12;;;;;;;16.10;11.80;;;;;;;8.92;100.00;100528.50;4950421;28;20208;-71
2022/04/21 10:16:42;;;;;;;12.73;10.70;;;;;;;9.15;100.00;100524.56;4950213;28;20231;-71
2022/04/21 10:19:10;;;;;;;11.87;9.57;;;;;;;9.25;100.00;100529.53;4944396;28;20233;-71
2022/04/21 10:21:48;;;;;;;10.90;9.20;;;;;;;9.26;100.00;100525.19;4949120;28;20206;-71
2022/04/21 10:24:15;;;;;;;10.50;8.77;;;;;;;9.39;100.00;100520.53;4949842;28;20209;-71
2022/04/21 10:26:43;;;;;;;11.00;8.70;;;;;;;9.47;100.00;100526.44;4949882;28;20231;-71
2022/04/21 10:29:11;;;;;;;13.80;9.13;;;;;;;9.54;100.00;100524.56;4949725;28;20215;-71
2022/04/21 10:31:46;;;;;;;11.03;8.83;;;;;;;9.58;100.00;100526.19;4945467;28;20209;-71
2022/04/21 10:34:28;;;;;;;10.27;8.50;;;;;;;9.50;100.00;100526.38;4945890;29;20225;-72
2022/04/21 10:37:08;;;;;;;9.20;7.07;;;;;;;9.38;100.00;100535.31;4949513;29;20277;-71
2022/04/21 10:39:34;;;;;;;8.27;6.70;;;;;;;9.35;100.00;100537.13;4949560;28;20213;-71
2022/04/21 10:42:12;;;;;;;11.10;8.00;;;;;;;9.36;100.00;100529.28;4949445;28;20318;-71
2022/04/21 10:44:56;;;;;;;11.73;8.87;;;;;;;9.11;100.00;100534.16;4949269;28;20498;-71
2022/04/21 10:47:31;;;;;;;13.57;9.20;;;;;;;9.01;100.00;100532.66;4949728;28;20210;-71
2022/04/21 10:49:58;;;;;;;13.17;10.07;;;;;;;9.05;100.00;100536.91;4943136;29;20203;-71
2022/04/21 10:58:51;;;;;;;14.17;10.93;;;;;;;8.73;100.00;100533.22;4948783;28;20205;-71
2022/04/21 11:01:31;;;;;;;15.63;11.30;;;;;;;8.76;100.00;100540.09;4950561;28;20600;-71
2022/04/21 11:04:19;;;;;;;14.83;10.63;;;;;;;8.70;100.00;100528.06;4946068;29;20289;-71
2022/04/21 11:06:47;;;;;;;16.03;11.67;;;;;;;8.70;100.00;100538.47;4947744;29;20595;-71
2022/04/21 11:09:40;;;;;;;16.67;12.67;;;;;;;8.68;100.00;100533.31;4949327;28;20753;-71
2022/04/21 11:12:08;;;;;;;15.43;11.70;;;;;;;8.68;100.00;100528.09;4944917;29;20202;-71
2022/04/21 11:14:36;;;;;;;14.73;12.30;;;;;;;8.72;100.00;100531.50;4948657;28;20220;-71
2022/04/21 11:17:05;;;;;;;15.67;11.47;;;;;;;8.62;100.00;100533.44;4949175;28;20309;-71
2022/04/21 11:19:36;;;;;;;14.23;10.87;;;;;;;8.59;100.00;100533.50;4948956;28;20684;-71
2022/04/21 11:22:05;;;;;;;15.33;11.27;;;;;;;8.58;100.00;100536.13;4949621;28;20299;-72
2022/04/21 11:25:02;;;;;;;14.97;11.30;;;;;;;8.56;100.00;100525.75;4949347;28;20236;-71
2022/04/21 11:27:30;;;;;;;17.07;12.03;;;;;;;8.59;100.00;100528.28;4945857;29;20232;-71
2022/04/21 11:30:00;;;;;;;14.63;11.67;;;;;;;8.61;100.00;100530.88;4944878;29;20202;-71
2022/04/21 11:32:26;;;;;;;16.57;11.47;;;;;;;8.60;100.00;100535.22;4948523;28;20304;-71
2022/04/21 11:35:00;;;;;;;16.80;11.97;;;;;;;8.63;100.00;100534.28;4941718;28;20222;-71
2022/04/21 11:38:00;;;;;;;16.33;11.97;;;;;;;8.62;100.00;100525.63;4949025;28;20232;-71
2022/04/21 11:40:34;;;;;;;17.63;11.37;;;;;;;8.59;100.00;100525.69;4887105;29;20310;-70
2022/04/21 11:43:03;;;;;;;17.73;12.13;;;;;;;8.63;100.00;100527.34;4885880;29;20227;-71
2022/04/21 11:45:31;;;;;;;15.13;11.77;;;;;;;8.60;100.00;100531.75;4918619;28;20237;-71
2022/04/21 11:47:58;;;;;;;15.63;11.70;;;;;;;8.62;100.00;100529.97;4943621;29;20468;-71
2022/04/21 11:50:26;;;;;;;16.80;12.37;;;;;;;8.63;100.00;100531.69;4948520;28;20217;-71
2022/04/21 11:52:54;;;;;;;16.03;11.87;;;;;;;8.62;100.00;100525.63;4948556;28;20208;-71
2022/04/21 11:55:22;;;;;;;17.17;12.67;;;;;;;8.66;100.00;100523.84;4951620;28;20250;-71
2022/04/21 11:57:51;;;;;;;14.80;12.00;;;;;;;8.68;100.00;100535.91;4947866;28;20219;-72
2022/04/21 12:06:27;;;;;;;17.63;12.07;;;;;;;8.76;100.00;100527.09;4949640;28;20629;-71
2022/04/21 12:08:35;;;;;;;15.57;12.33;;;;;;;9.00;100.00;100529.19;4949138;28;20209;-71
2022/04/21 12:11:02;;;;;;;17.43;12.10;;;;;;;9.02;100.00;100534.34;4948870;28;20626;-71
2022/04/21 12:13:29;;;;;;;17.03;12.13;;;;;;;9.07;100.00;100532.53;4950253;28;20679;-71